SWA371 KSAN-KABQ
Flight info
| Callsign | SWA371 |
|---|---|
| Flight time | 1h 20m |
| Altitude | 37000 |
| Route | ZZOOO4 TGOLD PXR J18 SJN BRRTO BRRTO1 |
| Aircraft | B738/M-SADE2E3GIJ4RWZ/LB1D1 |
Departure
| Time | 2026-04-22 01:04 |
|---|---|
| Airport | San Diego International Airport (KSAN) |
Arrival
| Time | 2026-04-22 02:25 |
|---|---|
| Airport | Albuquerque International Sunport (KABQ) |
| Time | Latitude | Longitude | Altitude | Speed | Heading |
|---|---|---|---|---|---|
| 2026-04-22 00:47 | 32.73336 | -117.19906 | 28 ft | 0 kts | 116° |
| 2026-04-22 00:55 | 32.73337 | -117.19909 | 25 ft | 3 kts | 116° |
| 2026-04-22 00:55 | 32.73348 | -117.19937 | 30 ft | 4 kts | 111° |
| 2026-04-22 00:55 | 32.73347 | -117.19983 | 29 ft | 1 kts | 13° |
| 2026-04-22 00:56 | 32.73345 | -117.19984 | 29 ft | 1 kts | 13° |
| 2026-04-22 00:58 | 32.73353 | -117.19982 | 30 ft | 2 kts | 13° |
| 2026-04-22 00:59 | 32.73367 | -117.19978 | 27 ft | 2 kts | 12° |
| 2026-04-22 00:59 | 32.73380 | -117.19975 | 28 ft | 2 kts | 12° |
| 2026-04-22 00:59 | 32.73393 | -117.19971 | 29 ft | 2 kts | 12° |
| 2026-04-22 00:59 | 32.73406 | -117.19968 | 28 ft | 3 kts | 12° |
| 2026-04-22 01:00 | 32.73462 | -117.19945 | 26 ft | 12 kts | 40° |
| 2026-04-22 01:00 | 32.73469 | -117.19854 | 26 ft | 12 kts | 107° |
| 2026-04-22 01:00 | 32.73442 | -117.19751 | 29 ft | 16 kts | 106° |
| 2026-04-22 01:00 | 32.73407 | -117.19603 | 27 ft | 21 kts | 105° |
| 2026-04-22 01:01 | 32.73366 | -117.19434 | 26 ft | 21 kts | 106° |
| 2026-04-22 01:01 | 32.73324 | -117.19259 | 22 ft | 26 kts | 106° |
| 2026-04-22 01:01 | 32.73274 | -117.19056 | 28 ft | 25 kts | 106° |
| 2026-04-22 01:01 | 32.73230 | -117.18864 | 30 ft | 23 kts | 104° |
| 2026-04-22 01:02 | 32.73184 | -117.18684 | 27 ft | 22 kts | 106° |
| 2026-04-22 01:02 | 32.73143 | -117.18508 | 27 ft | 22 kts | 108° |
| 2026-04-22 01:02 | 32.73100 | -117.18338 | 27 ft | 21 kts | 106° |
| 2026-04-22 01:02 | 32.73060 | -117.18172 | 22 ft | 21 kts | 105° |
| 2026-04-22 01:03 | 32.73021 | -117.18012 | 23 ft | 20 kts | 106° |
| 2026-04-22 01:03 | 32.72983 | -117.17856 | 21 ft | 19 kts | 108° |
| 2026-04-22 01:03 | 32.72951 | -117.17720 | 21 ft | 13 kts | 95° |
| 2026-04-22 01:03 | 32.72972 | -117.17620 | 28 ft | 13 kts | 52° |
| 2026-04-22 01:04 | 32.73036 | -117.17650 | 23 ft | 13 kts | 290° |
| 2026-04-22 01:04 | 32.73090 | -117.17869 | 23 ft | 64 kts | 286° |
| 2026-04-22 01:04 | 32.73295 | -117.18712 | 25 ft | 146 kts | 286° |
| 2026-04-22 01:04 | 32.73619 | -117.20014 | 662 ft | 174 kts | 285° |
| 2026-04-22 01:05 | 32.73933 | -117.21461 | 1631 ft | 185 kts | 281° |
| 2026-04-22 01:05 | 32.74232 | -117.22972 | 2465 ft | 195 kts | 284° |
| 2026-04-22 01:05 | 32.74659 | -117.24622 | 2792 ft | 220 kts | 285° |
| 2026-04-22 01:05 | 32.75113 | -117.26378 | 3451 ft | 226 kts | 285° |
| 2026-04-22 01:06 | 32.75564 | -117.28177 | 4184 ft | 229 kts | 284° |
| 2026-04-22 01:06 | 32.76012 | -117.29997 | 4985 ft | 231 kts | 284° |
| 2026-04-22 01:06 | 32.76450 | -117.31847 | 5826 ft | 235 kts | 278° |
| 2026-04-22 01:06 | 32.76334 | -117.33731 | 6843 ft | 229 kts | 248° |
| 2026-04-22 01:07 | 32.75460 | -117.35302 | 7778 ft | 233 kts | 224° |
| 2026-04-22 01:07 | 32.74038 | -117.36275 | 8672 ft | 243 kts | 199° |
| 2026-04-22 01:07 | 32.72327 | -117.36351 | 9614 ft | 256 kts | 172° |
| 2026-04-22 01:07 | 32.70689 | -117.35394 | 10473 ft | 271 kts | 147° |
| 2026-04-22 01:08 | 32.69350 | -117.33742 | 11261 ft | 283 kts | 134° |
| 2026-04-22 01:08 | 32.68121 | -117.31877 | 12042 ft | 290 kts | 134° |
| 2026-04-22 01:08 | 32.66864 | -117.29978 | 12844 ft | 295 kts | 134° |
| 2026-04-22 01:08 | 32.65563 | -117.28069 | 13671 ft | 300 kts | 135° |
| 2026-04-22 01:09 | 32.64228 | -117.26144 | 14420 ft | 305 kts | 135° |
| 2026-04-22 01:09 | 32.63127 | -117.23939 | 15105 ft | 323 kts | 111° |
| 2026-04-22 01:09 | 32.62730 | -117.21247 | 15388 ft | 350 kts | 98° |
| 2026-04-22 01:09 | 32.62506 | -117.18272 | 15597 ft | 374 kts | 97° |
| 2026-04-22 01:10 | 32.62265 | -117.15130 | 16028 ft | 389 kts | 98° |
| 2026-04-22 01:10 | 32.62015 | -117.11906 | 16702 ft | 395 kts | 94° |
| 2026-04-22 01:10 | 32.62362 | -117.08654 | 17413 ft | 403 kts | 72° |
| 2026-04-22 01:10 | 32.63370 | -117.05544 | 18186 ft | 407 kts | 67° |
| 2026-04-22 01:11 | 32.64457 | -117.02410 | 18804 ft | 413 kts | 67° |
| 2026-04-22 01:11 | 32.65531 | -116.99232 | 19437 ft | 418 kts | 68° |
| 2026-04-22 01:11 | 32.66536 | -116.95979 | 20081 ft | 422 kts | 76° |
| 2026-04-22 01:11 | 32.66863 | -116.92513 | 20694 ft | 424 kts | 91° |
| 2026-04-22 01:12 | 32.66885 | -116.89003 | 21365 ft | 428 kts | 92° |
| 2026-04-22 01:12 | 32.66907 | -116.85452 | 21949 ft | 433 kts | 92° |
| 2026-04-22 01:12 | 32.66959 | -116.81868 | 22585 ft | 436 kts | 91° |
| 2026-04-22 01:12 | 32.67037 | -116.78253 | 23182 ft | 441 kts | 91° |
| 2026-04-22 01:13 | 32.67124 | -116.74589 | 23743 ft | 446 kts | 91° |
| 2026-04-22 01:13 | 32.67133 | -116.70904 | 24222 ft | 449 kts | 94° |
| 2026-04-22 01:13 | 32.67062 | -116.67189 | 24716 ft | 451 kts | 94° |
| 2026-04-22 01:13 | 32.66973 | -116.63463 | 25272 ft | 453 kts | 95° |
| 2026-04-22 01:14 | 32.66884 | -116.59703 | 25681 ft | 459 kts | 95° |
| 2026-04-22 01:14 | 32.66831 | -116.57192 | 25962 ft | 462 kts | 95° |
| 2026-04-22 01:14 | 32.66758 | -116.53377 | 26500 ft | 462 kts | 94° |
| 2026-04-22 01:14 | 32.66696 | -116.49563 | 27005 ft | 464 kts | 94° |
| 2026-04-22 01:15 | 32.66634 | -116.45722 | 27437 ft | 468 kts | 94° |
| 2026-04-22 01:15 | 32.66584 | -116.41837 | 27844 ft | 473 kts | 92° |
| 2026-04-22 01:15 | 32.66778 | -116.37920 | 28266 ft | 478 kts | 86° |
| 2026-04-22 01:15 | 32.67299 | -116.32701 | 28842 ft | 483 kts | 84° |
| 2026-04-22 01:16 | 32.67598 | -116.30029 | 29122 ft | 485 kts | 84° |
| 2026-04-22 01:16 | 32.68030 | -116.26042 | 29526 ft | 489 kts | 85° |
| 2026-04-22 01:16 | 32.68437 | -116.22005 | 29759 ft | 497 kts | 86° |
| 2026-04-22 01:16 | 32.68819 | -116.17900 | 29973 ft | 503 kts | 86° |
| 2026-04-22 01:17 | 32.69188 | -116.13758 | 30403 ft | 504 kts | 86° |
| 2026-04-22 01:17 | 32.69551 | -116.09626 | 30853 ft | 503 kts | 86° |
| 2026-04-22 01:17 | 32.69915 | -116.05493 | 31189 ft | 505 kts | 86° |
| 2026-04-22 01:17 | 32.70279 | -116.01388 | 31424 ft | 509 kts | 86° |
| 2026-04-22 01:18 | 32.70663 | -115.97195 | 31707 ft | 512 kts | 86° |
| 2026-04-22 01:18 | 32.71052 | -115.93018 | 32272 ft | 505 kts | 86° |
| 2026-04-22 01:18 | 32.71437 | -115.88928 | 33129 ft | 494 kts | 86° |
| 2026-04-22 01:18 | 32.71813 | -115.84885 | 33591 ft | 492 kts | 86° |
| 2026-04-22 01:19 | 32.72186 | -115.80827 | 33832 ft | 496 kts | 86° |
| 2026-04-22 01:19 | 32.72557 | -115.76744 | 34080 ft | 499 kts | 86° |
| 2026-04-22 01:19 | 32.72928 | -115.72653 | 34444 ft | 497 kts | 86° |
| 2026-04-22 01:19 | 32.73297 | -115.68583 | 34867 ft | 494 kts | 86° |
| 2026-04-22 01:20 | 32.73663 | -115.64534 | 35219 ft | 493 kts | 86° |
| 2026-04-22 01:20 | 32.74026 | -115.60498 | 35666 ft | 487 kts | 86° |
| 2026-04-22 01:20 | 32.74383 | -115.56525 | 36204 ft | 482 kts | 86° |
| 2026-04-22 01:20 | 32.74736 | -115.52573 | 36572 ft | 480 kts | 86° |
| 2026-04-22 01:21 | 32.75037 | -115.48618 | 36833 ft | 481 kts | 89° |
| 2026-04-22 01:21 | 32.75190 | -115.44647 | 36944 ft | 484 kts | 91° |
| 2026-04-22 01:21 | 32.75313 | -115.36558 | 36944 ft | 495 kts | 91° |
| 2026-04-22 01:22 | 32.75433 | -115.28305 | 36939 ft | 505 kts | 91° |
| 2026-04-22 01:22 | 32.75606 | -115.19873 | 36936 ft | 514 kts | 90° |
| 2026-04-22 01:23 | 32.75799 | -115.11347 | 36927 ft | 517 kts | 90° |
| 2026-04-22 01:23 | 32.75988 | -115.02798 | 36925 ft | 518 kts | 91° |
| 2026-04-22 01:24 | 32.76166 | -114.94244 | 36932 ft | 518 kts | 90° |
| 2026-04-22 01:24 | 32.76337 | -114.85693 | 36924 ft | 517 kts | 91° |
| 2026-04-22 01:25 | 32.76502 | -114.77155 | 36925 ft | 517 kts | 91° |
| 2026-04-22 01:25 | 32.76660 | -114.68682 | 36925 ft | 516 kts | 91° |
| 2026-04-22 01:26 | 32.76814 | -114.60170 | 36926 ft | 515 kts | 91° |
| 2026-04-22 01:26 | 32.76943 | -114.51658 | 36926 ft | 515 kts | 91° |
| 2026-04-22 01:27 | 32.77054 | -114.43148 | 36929 ft | 515 kts | 91° |
| 2026-04-22 01:27 | 32.77162 | -114.34652 | 36903 ft | 514 kts | 91° |
| 2026-04-22 01:28 | 32.77268 | -114.26176 | 36920 ft | 513 kts | 91° |
| 2026-04-22 01:28 | 32.77368 | -114.17715 | 36923 ft | 512 kts | 91° |
| 2026-04-22 01:29 | 32.77462 | -114.09266 | 36918 ft | 511 kts | 91° |
| 2026-04-22 01:29 | 32.77549 | -114.00824 | 36925 ft | 510 kts | 91° |
| 2026-04-22 01:30 | 32.78031 | -113.92416 | 36917 ft | 511 kts | 81° |
| 2026-04-22 01:30 | 32.79384 | -113.84114 | 36908 ft | 511 kts | 80° |
| 2026-04-22 01:31 | 32.80667 | -113.75856 | 36908 ft | 511 kts | 81° |
| 2026-04-22 01:31 | 32.81921 | -113.67554 | 36889 ft | 511 kts | 75° |
| 2026-04-22 01:32 | 32.84328 | -113.59608 | 36900 ft | 510 kts | 68° |
| 2026-04-22 01:32 | 32.87033 | -113.51811 | 36897 ft | 510 kts | 68° |
| 2026-04-22 01:33 | 32.89655 | -113.43967 | 36893 ft | 510 kts | 69° |
| 2026-04-22 01:33 | 32.92192 | -113.36077 | 36895 ft | 509 kts | 69° |
| 2026-04-22 01:34 | 32.94694 | -113.28198 | 36887 ft | 509 kts | 70° |
| 2026-04-22 01:34 | 32.97180 | -113.20365 | 36889 ft | 509 kts | 70° |
| 2026-04-22 01:35 | 32.99684 | -113.12475 | 36889 ft | 509 kts | 70° |
| 2026-04-22 01:35 | 33.02182 | -113.04587 | 36894 ft | 508 kts | 70° |
| 2026-04-22 01:36 | 33.04671 | -112.96709 | 36898 ft | 508 kts | 70° |
| 2026-04-22 01:36 | 33.07151 | -112.88836 | 36886 ft | 508 kts | 70° |
| 2026-04-22 01:37 | 33.09627 | -112.80952 | 36886 ft | 508 kts | 70° |
| 2026-04-22 01:37 | 33.12101 | -112.73062 | 36889 ft | 507 kts | 70° |
| 2026-04-22 01:38 | 33.14940 | -112.65378 | 36900 ft | 506 kts | 63° |
| 2026-04-22 01:38 | 33.18167 | -112.57924 | 36901 ft | 506 kts | 62° |
| 2026-04-22 01:39 | 33.21371 | -112.50451 | 36899 ft | 505 kts | 63° |
| 2026-04-22 01:39 | 33.24477 | -112.42985 | 36910 ft | 505 kts | 63° |
| 2026-04-22 01:40 | 33.27590 | -112.35409 | 36915 ft | 505 kts | 63° |
| 2026-04-22 01:40 | 33.30660 | -112.27926 | 36920 ft | 504 kts | 63° |
| 2026-04-22 01:41 | 33.33748 | -112.20395 | 36915 ft | 504 kts | 63° |
| 2026-04-22 01:41 | 33.36833 | -112.12859 | 36891 ft | 504 kts | 63° |
| 2026-04-22 01:42 | 33.39911 | -112.05321 | 36907 ft | 504 kts | 63° |
| 2026-04-22 01:42 | 33.42982 | -111.97785 | 36909 ft | 503 kts | 63° |
| 2026-04-22 01:43 | 33.45906 | -111.90167 | 36907 ft | 504 kts | 66° |
| 2026-04-22 01:43 | 33.48661 | -111.82448 | 36917 ft | 504 kts | 66° |
| 2026-04-22 01:44 | 33.51416 | -111.74748 | 36919 ft | 502 kts | 66° |
| 2026-04-22 01:44 | 33.54192 | -111.67071 | 36930 ft | 501 kts | 66° |
| 2026-04-22 01:45 | 33.56972 | -111.59401 | 36909 ft | 501 kts | 66° |
| 2026-04-22 01:45 | 33.59729 | -111.51774 | 36885 ft | 501 kts | 66° |
| 2026-04-22 01:46 | 33.62494 | -111.44099 | 36892 ft | 501 kts | 66° |
| 2026-04-22 01:46 | 33.65255 | -111.36413 | 36910 ft | 501 kts | 66° |
| 2026-04-22 01:47 | 33.68011 | -111.28727 | 36915 ft | 501 kts | 66° |
| 2026-04-22 01:47 | 33.70769 | -111.21041 | 36920 ft | 501 kts | 66° |
| 2026-04-22 01:48 | 33.73527 | -111.13359 | 36921 ft | 501 kts | 66° |
| 2026-04-22 01:48 | 33.76272 | -111.05693 | 36927 ft | 499 kts | 66° |
| 2026-04-22 01:49 | 33.79007 | -110.98034 | 36934 ft | 498 kts | 66° |
| 2026-04-22 01:49 | 33.81732 | -110.90384 | 36936 ft | 497 kts | 66° |
| 2026-04-22 01:50 | 33.84450 | -110.82737 | 36947 ft | 497 kts | 66° |
| 2026-04-22 01:50 | 33.87149 | -110.75087 | 36953 ft | 496 kts | 66° |
| 2026-04-22 01:51 | 33.89839 | -110.67430 | 36964 ft | 496 kts | 66° |
| 2026-04-22 01:51 | 33.92519 | -110.59787 | 36972 ft | 496 kts | 66° |
| 2026-04-22 01:52 | 33.95197 | -110.52136 | 36972 ft | 496 kts | 66° |
| 2026-04-22 01:52 | 33.97851 | -110.44534 | 36979 ft | 495 kts | 66° |
| 2026-04-22 01:53 | 34.00518 | -110.36878 | 36979 ft | 496 kts | 66° |
| 2026-04-22 01:53 | 34.03189 | -110.29206 | 37015 ft | 496 kts | 66° |
| 2026-04-22 01:54 | 34.05858 | -110.21533 | 37058 ft | 497 kts | 66° |
| 2026-04-22 01:54 | 34.08526 | -110.13845 | 37098 ft | 497 kts | 66° |
| 2026-04-22 01:55 | 34.11185 | -110.06161 | 37140 ft | 496 kts | 66° |
| 2026-04-22 01:55 | 34.13843 | -109.98461 | 37161 ft | 496 kts | 66° |
| 2026-04-22 01:56 | 34.16488 | -109.90778 | 37165 ft | 496 kts | 66° |
| 2026-04-22 01:56 | 34.19113 | -109.83136 | 37139 ft | 495 kts | 66° |
| 2026-04-22 01:57 | 34.21747 | -109.75448 | 37102 ft | 495 kts | 66° |
| 2026-04-22 01:57 | 34.24376 | -109.67758 | 36995 ft | 494 kts | 66° |
| 2026-04-22 01:58 | 34.26991 | -109.60088 | 37035 ft | 494 kts | 66° |
| 2026-04-22 01:58 | 34.29598 | -109.52407 | 37057 ft | 493 kts | 66° |
| 2026-04-22 01:59 | 34.32198 | -109.44726 | 37091 ft | 493 kts | 66° |
| 2026-04-22 01:59 | 34.34786 | -109.37061 | 37079 ft | 492 kts | 66° |
| 2026-04-22 02:00 | 34.37371 | -109.29385 | 37057 ft | 492 kts | 66° |
| 2026-04-22 02:00 | 34.39933 | -109.21764 | 37015 ft | 492 kts | 66° |
| 2026-04-22 02:01 | 34.42434 | -109.14049 | 36947 ft | 493 kts | 71° |
| 2026-04-22 02:01 | 34.43220 | -109.10047 | 36930 ft | 482 kts | 78° |
| 2026-04-22 02:01 | 34.43630 | -109.07379 | 36911 ft | 473 kts | 78° |
| 2026-04-22 02:02 | 34.44729 | -108.99707 | 36894 ft | 449 kts | 79° |
| 2026-04-22 02:02 | 34.45256 | -108.96036 | 36891 ft | 436 kts | 78° |
| 2026-04-22 02:02 | 34.45780 | -108.92471 | 36897 ft | 423 kts | 78° |
| 2026-04-22 02:03 | 34.46296 | -108.89012 | 36886 ft | 411 kts | 78° |
| 2026-04-22 02:03 | 34.46803 | -108.85658 | 36895 ft | 398 kts | 78° |
| 2026-04-22 02:03 | 34.47806 | -108.79058 | 36931 ft | 404 kts | 78° |
| 2026-04-22 02:04 | 34.48844 | -108.72232 | 36893 ft | 419 kts | 78° |
| 2026-04-22 02:04 | 34.49375 | -108.68722 | 36371 ft | 426 kts | 78° |
| 2026-04-22 02:04 | 34.49914 | -108.65147 | 35477 ft | 437 kts | 78° |
| 2026-04-22 02:05 | 34.50467 | -108.61476 | 34652 ft | 448 kts | 78° |
| 2026-04-22 02:05 | 34.51020 | -108.57785 | 34062 ft | 451 kts | 77° |
| 2026-04-22 02:05 | 34.51577 | -108.54051 | 33661 ft | 448 kts | 78° |
| 2026-04-22 02:05 | 34.52127 | -108.50355 | 33336 ft | 443 kts | 78° |
| 2026-04-22 02:06 | 34.52670 | -108.46699 | 32994 ft | 438 kts | 78° |
| 2026-04-22 02:06 | 34.53208 | -108.43074 | 32607 ft | 436 kts | 78° |
| 2026-04-22 02:06 | 34.53743 | -108.39470 | 32175 ft | 433 kts | 78° |
| 2026-04-22 02:06 | 34.54283 | -108.35830 | 31229 ft | 445 kts | 78° |
| 2026-04-22 02:07 | 34.54835 | -108.32097 | 30444 ft | 452 kts | 79° |
| 2026-04-22 02:07 | 34.55389 | -108.28345 | 29953 ft | 450 kts | 79° |
| 2026-04-22 02:07 | 34.55934 | -108.24632 | 29563 ft | 444 kts | 79° |
| 2026-04-22 02:07 | 34.56471 | -108.20966 | 29154 ft | 439 kts | 79° |
| 2026-04-22 02:08 | 34.57001 | -108.17340 | 28681 ft | 435 kts | 79° |
| 2026-04-22 02:08 | 34.57527 | -108.13739 | 28190 ft | 432 kts | 79° |
| 2026-04-22 02:08 | 34.58048 | -108.10165 | 27715 ft | 429 kts | 79° |
| 2026-04-22 02:08 | 34.58563 | -108.06620 | 27268 ft | 425 kts | 80° |
| 2026-04-22 02:09 | 34.59074 | -108.03105 | 26838 ft | 421 kts | 80° |
| 2026-04-22 02:09 | 34.59580 | -107.99607 | 26398 ft | 418 kts | 80° |
| 2026-04-22 02:09 | 34.60081 | -107.96145 | 25972 ft | 415 kts | 80° |
| 2026-04-22 02:09 | 34.60576 | -107.92709 | 25559 ft | 412 kts | 80° |
| 2026-04-22 02:10 | 34.61068 | -107.89294 | 25149 ft | 409 kts | 80° |
| 2026-04-22 02:10 | 34.61555 | -107.85910 | 24730 ft | 406 kts | 81° |
| 2026-04-22 02:10 | 34.62038 | -107.82543 | 24337 ft | 403 kts | 80° |
| 2026-04-22 02:10 | 34.62778 | -107.79284 | 23904 ft | 401 kts | 64° |
| 2026-04-22 02:11 | 34.64065 | -107.76296 | 23543 ft | 397 kts | 61° |
| 2026-04-22 02:11 | 34.65357 | -107.73398 | 23096 ft | 394 kts | 61° |
| 2026-04-22 02:11 | 34.66653 | -107.70480 | 22668 ft | 390 kts | 61° |
| 2026-04-22 02:11 | 34.67928 | -107.67581 | 22234 ft | 388 kts | 62° |
| 2026-04-22 02:12 | 34.69184 | -107.64693 | 21805 ft | 385 kts | 62° |
| 2026-04-22 02:12 | 34.70423 | -107.61825 | 21389 ft | 382 kts | 62° |
| 2026-04-22 02:12 | 34.71649 | -107.58973 | 20944 ft | 380 kts | 62° |
| 2026-04-22 02:12 | 34.72864 | -107.56138 | 20528 ft | 377 kts | 62° |
| 2026-04-22 02:13 | 34.74075 | -107.53311 | 20100 ft | 376 kts | 62° |
| 2026-04-22 02:13 | 34.75271 | -107.50514 | 19750 ft | 371 kts | 62° |
| 2026-04-22 02:13 | 34.76461 | -107.47730 | 19329 ft | 370 kts | 62° |
| 2026-04-22 02:13 | 34.77641 | -107.44966 | 18932 ft | 368 kts | 62° |
| 2026-04-22 02:14 | 34.78814 | -107.42220 | 18595 ft | 364 kts | 62° |
| 2026-04-22 02:14 | 34.79982 | -107.39479 | 18164 ft | 364 kts | 62° |
| 2026-04-22 02:14 | 34.81138 | -107.36768 | 17816 ft | 359 kts | 62° |
| 2026-04-22 02:14 | 34.82285 | -107.34075 | 17421 ft | 356 kts | 62° |
| 2026-04-22 02:15 | 34.83421 | -107.31403 | 16979 ft | 355 kts | 62° |
| 2026-04-22 02:15 | 34.84539 | -107.28775 | 16560 ft | 353 kts | 62° |
| 2026-04-22 02:15 | 34.85665 | -107.26082 | 16152 ft | 351 kts | 63° |
| 2026-04-22 02:15 | 34.86746 | -107.23465 | 15761 ft | 350 kts | 63° |
| 2026-04-22 02:16 | 34.87834 | -107.20825 | 15365 ft | 348 kts | 63° |
| 2026-04-22 02:16 | 34.88917 | -107.18200 | 14979 ft | 346 kts | 63° |
| 2026-04-22 02:16 | 34.89937 | -107.15550 | 14588 ft | 345 kts | 72° |
| 2026-04-22 02:16 | 34.90393 | -107.12698 | 14219 ft | 342 kts | 82° |
| 2026-04-22 02:17 | 34.90709 | -107.09837 | 13862 ft | 340 kts | 83° |
| 2026-04-22 02:17 | 34.91019 | -107.06983 | 13462 ft | 339 kts | 83° |
| 2026-04-22 02:17 | 34.91334 | -107.04149 | 13097 ft | 337 kts | 83° |
| 2026-04-22 02:17 | 34.91656 | -107.01328 | 12676 ft | 336 kts | 83° |
| 2026-04-22 02:18 | 34.91982 | -106.98509 | 12247 ft | 335 kts | 83° |
| 2026-04-22 02:18 | 34.92310 | -106.95711 | 11889 ft | 332 kts | 83° |
| 2026-04-22 02:18 | 34.92636 | -106.92937 | 11533 ft | 329 kts | 83° |
| 2026-04-22 02:18 | 34.92961 | -106.90184 | 11202 ft | 326 kts | 83° |
| 2026-04-22 02:19 | 34.93282 | -106.87460 | 10984 ft | 323 kts | 83° |
| 2026-04-22 02:19 | 34.93599 | -106.84764 | 10660 ft | 320 kts | 83° |
| 2026-04-22 02:19 | 34.93911 | -106.82110 | 10505 ft | 312 kts | 83° |
| 2026-04-22 02:19 | 34.94217 | -106.79500 | 10381 ft | 311 kts | 84° |
| 2026-04-22 02:20 | 34.94520 | -106.76909 | 10260 ft | 305 kts | 84° |
| 2026-04-22 02:20 | 34.94816 | -106.74381 | 10135 ft | 297 kts | 84° |
| 2026-04-22 02:20 | 34.95103 | -106.71924 | 10018 ft | 289 kts | 84° |
| 2026-04-22 02:20 | 34.95322 | -106.69511 | 9782 ft | 284 kts | 88° |
| 2026-04-22 02:21 | 34.95402 | -106.67146 | 9529 ft | 275 kts | 90° |
| 2026-04-22 02:21 | 34.95463 | -106.64855 | 9251 ft | 265 kts | 90° |
| 2026-04-22 02:21 | 34.95496 | -106.62651 | 8979 ft | 254 kts | 90° |
| 2026-04-22 02:21 | 34.95526 | -106.60558 | 8713 ft | 247 kts | 91° |
| 2026-04-22 02:22 | 34.95562 | -106.58472 | 8443 ft | 246 kts | 89° |
| 2026-04-22 02:22 | 34.95851 | -106.56411 | 8146 ft | 248 kts | 73° |
| 2026-04-22 02:22 | 34.96624 | -106.54531 | 7866 ft | 249 kts | 55° |
| 2026-04-22 02:22 | 34.97808 | -106.53044 | 7562 ft | 238 kts | 37° |
| 2026-04-22 02:23 | 34.99176 | -106.52072 | 7322 ft | 218 kts | 29° |
| 2026-04-22 02:23 | 35.00437 | -106.51217 | 7088 ft | 197 kts | 30° |
| 2026-04-22 02:23 | 35.01663 | -106.50642 | 6830 ft | 184 kts | 7° |
| 2026-04-22 02:23 | 35.02872 | -106.50852 | 6579 ft | 172 kts | 334° |
| 2026-04-22 02:24 | 35.03832 | -106.51690 | 6371 ft | 168 kts | 311° |
| 2026-04-22 02:24 | 35.04370 | -106.52898 | 6175 ft | 160 kts | 275° |
| 2026-04-22 02:24 | 35.04416 | -106.54280 | 5885 ft | 166 kts | 266° |
| 2026-04-22 02:24 | 35.04420 | -106.55672 | 5640 ft | 160 kts | 267° |
| 2026-04-22 02:25 | 35.04411 | -106.56970 | 5419 ft | 150 kts | 268° |
| 2026-04-22 02:25 | 35.04408 | -106.58219 | 5320 ft | 139 kts | 272° |
| 2026-04-22 02:25 | 35.04415 | -106.59106 | 5326 ft | 44 kts | 270° |
| 2026-04-22 02:25 | 35.04419 | -106.59444 | 5323 ft | 30 kts | 270° |
| 2026-04-22 02:26 | 35.04434 | -106.59662 | 5319 ft | 22 kts | 283° |
| 2026-04-22 02:26 | 35.04491 | -106.59829 | 5323 ft | 21 kts | 302° |
| 2026-04-22 02:26 | 35.04561 | -106.59983 | 5325 ft | 21 kts | 292° |
| 2026-04-22 02:26 | 35.04573 | -106.60153 | 5326 ft | 20 kts | 270° |
| 2026-04-22 02:27 | 35.04575 | -106.60319 | 5327 ft | 19 kts | 272° |
| 2026-04-22 02:27 | 35.04579 | -106.60484 | 5321 ft | 20 kts | 271° |
| 2026-04-22 02:27 | 35.04578 | -106.60652 | 5326 ft | 20 kts | 270° |
| 2026-04-22 02:27 | 35.04579 | -106.60816 | 5321 ft | 19 kts | 271° |
| 2026-04-22 02:28 | 35.04581 | -106.60988 | 5318 ft | 21 kts | 270° |
| 2026-04-22 02:28 | 35.04582 | -106.61163 | 5319 ft | 18 kts | 271° |
| 2026-04-22 02:28 | 35.04591 | -106.61290 | 5320 ft | 12 kts | 300° |
| 2026-04-22 02:28 | 35.04668 | -106.61312 | 5322 ft | 12 kts | 2° |
| 2026-04-22 02:29 | 35.04704 | -106.61378 | 5330 ft | 9 kts | 288° |